createdAt,value
2022-09-12T00:02:09.156Z,10.25752508361204
2022-09-12T00:11:38.700Z,10.003344481605351
2022-09-12T00:18:08.972Z,10.45819397993311
2022-09-12T00:24:47.478Z,10.341137123745819
2022-09-12T00:31:16.167Z,10.404682274247492
2022-09-12T00:37:46.068Z,11.301003344481606
2022-09-12T00:54:54.035Z,10.983277591973245
2022-09-12T01:07:16.132Z,11.755852842809364
2022-09-12T01:13:44.886Z,12.193979933110368
2022-09-12T01:20:12.967Z,12.85953177257525
2022-09-12T01:26:50.646Z,13.060200668896321
2022-09-12T01:35:11.056Z,12.14046822742475
2022-09-12T01:41:38.727Z,12.110367892976589
2022-09-12T01:53:04.805Z,12.505016722408026
2022-09-12T02:04:45.813Z,13.51505016722408
2022-09-12T02:16:06.110Z,13.678929765886288
2022-09-12T02:22:34.679Z,14.62541806020067
2022-09-12T02:38:35.820Z,17.608695652173914
2022-09-12T02:45:03.983Z,16.93979933110368
2022-09-12T02:51:31.853Z,17.013377926421406
2022-09-12T02:58:00.596Z,16.638795986622075
2022-09-12T03:05:59.520Z,16.792642140468228
2022-09-12T03:12:27.027Z,18.183946488294314
2022-09-12T03:18:54.983Z,18.665551839464882
2022-09-12T03:25:23.354Z,18.62541806020067
2022-09-12T03:31:53.386Z,19.36454849498328
2022-09-12T03:38:23.098Z,22.150501672240804
2022-09-12T03:44:52.598Z,21.31103678929766
2022-09-12T03:51:23.838Z,22.585284280936456
2022-09-12T03:59:28.164Z,23.775919732441473
2022-09-12T04:05:58.105Z,23.836120401337794
2022-09-12T04:22:47.592Z,27.137123745819398
2022-09-12T04:30:28.936Z,27.88628762541806
2022-09-12T04:36:59.398Z,28.301003344481604
2022-09-12T04:43:28.673Z,29.71571906354515
2022-09-12T04:49:58.794Z,31.03010033444816
2022-09-12T04:56:25.794Z,32.14046822742475
2022-09-12T05:02:54.755Z,32.50167224080268
2022-09-12T05:09:24.134Z,31.06020066889632
2022-09-12T05:21:15.374Z,28.91304347826087
2022-09-12T05:30:51.004Z,28.153846153846153
2022-09-12T05:37:20.213Z,28.494983277591974
2022-09-12T05:48:20.385Z,25.836120401337794
2022-09-12T05:54:49.004Z,24.993311036789297
2022-09-12T06:01:16.778Z,24.157190635451506
2022-09-12T06:16:29.302Z,24.34448160535117
2022-09-12T06:31:07.414Z,24.91638795986622
2022-09-12T06:43:51.013Z,24.745819397993312
2022-09-12T06:50:18.254Z,25.244147157190636
2022-09-12T06:56:45.565Z,25.17056856187291
2022-09-12T07:03:13.087Z,26.892976588628763
2022-09-12T07:12:20.354Z,28.163879598662206
2022-09-12T07:24:51.998Z,31.448160535117058
2022-09-12T07:31:19.490Z,32.5685618729097
2022-09-12T07:37:46.483Z,34.77257525083612
2022-09-12T07:44:13.295Z,35.42140468227425
2022-09-12T07:50:44.952Z,34.99665551839465
2022-09-12T07:57:12.681Z,35.45150501672241
2022-09-12T08:03:39.489Z,35.65886287625418
2022-09-12T08:10:06.854Z,33.40468227424749
2022-09-12T08:16:33.706Z,33.19063545150502
2022-09-12T08:23:08.576Z,31.812709030100333
2022-09-12T08:35:17.078Z,31.377926421404684
2022-09-12T08:41:44.225Z,32.98996655518395
2022-09-12T08:50:10.806Z,32.72240802675585
2022-09-12T09:01:14.226Z,33.331103678929765
2022-09-12T09:07:44.280Z,32.280936454849495
2022-09-12T09:15:34.033Z,33.98996655518395
2022-09-12T09:24:16.481Z,33.207357859531776
2022-09-12T09:45:47.979Z,29.421404682274247
2022-09-12T09:52:15.713Z,27.48160535117057
2022-09-12T10:08:30.664Z,24.581939799331103
2022-09-12T10:14:57.459Z,18.438127090301002
2022-09-12T10:21:24.876Z,17.13377926421405
2022-09-12T10:28:01.248Z,16.17391304347826
2022-09-12T10:34:57.277Z,15.234113712374581
2022-09-12T10:42:11.510Z,15.408026755852843
2022-09-12T10:48:38.711Z,15.68561872909699
2022-09-12T10:55:06.423Z,12.605351170568563
2022-09-12T11:01:34.019Z,11.438127090301004
2022-09-12T11:08:01.577Z,9.909698996655518
2022-09-12T11:14:48.438Z,9.066889632107024
2022-09-12T11:21:16.644Z,8.100334448160535
2022-09-12T11:28:31.292Z,8.65551839464883
2022-09-12T11:41:14.601Z,6.832775919732441
2022-09-12T11:50:36.951Z,6.789297658862877
2022-09-12T11:58:05.250Z,6.896321070234114
2022-09-12T12:04:59.149Z,6.826086956521739
2022-09-12T12:11:22.387Z,5.849498327759197
2022-09-12T12:17:46.017Z,5.1237458193979935
2022-09-12T12:24:13.295Z,3.9464882943143813
2022-09-12T12:30:37.212Z,3.7324414715719065
2022-09-12T12:52:14.622Z,2.7157190635451505
2022-09-12T12:58:38.298Z,2.6020066889632107
2022-09-12T13:05:01.368Z,2.6655518394648827
2022-09-12T13:11:24.310Z,2.782608695652174
2022-09-12T13:17:53.252Z,2.68561872909699
2022-09-12T13:24:15.955Z,3.1638795986622075
2022-09-12T13:36:00.736Z,2.8260869565217392
2022-09-12T13:44:46.481Z,2.3946488294314383
2022-09-12T13:51:10.137Z,2.722408026755853
2022-09-12T13:57:34.887Z,2.725752508361204
2022-09-12T14:04:03.431Z,2.6923076923076925
2022-09-12T14:10:28.342Z,2.6053511705685617
2022-09-12T14:18:12.653Z,4.264214046822742
2022-09-12T14:24:36.387Z,3.5183946488294313
2022-09-12T14:33:32.245Z,2.682274247491639
2022-09-12T14:47:37.810Z,2.903010033444816
2022-09-12T14:54:00.890Z,2.4816053511705687
2022-09-12T15:00:24.952Z,3.0668896321070234
2022-09-12T15:08:15.417Z,3.140468227424749
2022-09-12T15:14:39.218Z,3.431438127090301
2022-09-12T15:21:03.133Z,3.5819397993311037
2022-09-12T15:27:25.833Z,4.050167224080267
2022-09-12T15:33:49.177Z,4.8561872909699
2022-09-12T15:40:12.674Z,4.464882943143813
2022-09-12T15:46:37.336Z,4.147157190635451
2022-09-12T15:53:00.885Z,4.919732441471572
2022-09-12T15:59:23.866Z,4.080267558528428
2022-09-12T16:09:55.934Z,3.8127090301003346
2022-09-12T16:16:18.647Z,4.083612040133779
2022-09-12T16:22:42.758Z,4.702341137123746
2022-09-12T16:29:06.286Z,5.635451505016722
2022-09-12T16:35:30.059Z,7.374581939799331
2022-09-12T16:41:54.037Z,5.638795986622074
2022-09-12T16:50:18.347Z,4.8996655518394645
2022-09-12T16:56:42.442Z,5.474916387959866
2022-09-12T17:03:07.530Z,6.147157190635451
2022-09-12T17:09:32.189Z,4.866220735785953
2022-09-12T17:15:56.717Z,5.762541806020067
2022-09-12T17:26:24.396Z,6.010033444816053
2022-09-12T17:32:50.113Z,6.230769230769231
2022-09-12T17:39:14.290Z,6.254180602006689
2022-09-12T17:46:30.261Z,6.287625418060201
2022-09-12T17:52:58.798Z,6.030100334448161
2022-09-12T17:59:32.532Z,6.729096989966555
2022-09-12T18:12:16.348Z,7.722408026755853
2022-09-12T18:18:57.590Z,7.404682274247492
2022-09-12T18:25:29.131Z,10.792642140468228
2022-09-12T18:32:00.998Z,12.0
2022-09-12T18:42:42.247Z,9.471571906354516
2022-09-12T18:49:12.517Z,8.565217391304348
2022-09-12T18:55:57.562Z,8.926421404682275
2022-09-12T19:05:54.428Z,11.498327759197325
2022-09-12T19:12:26.685Z,10.167224080267559
2022-09-12T19:25:15.737Z,8.42809364548495
2022-09-12T19:31:48.434Z,8.14046822742475
2022-09-12T19:39:57.433Z,8.551839464882944
2022-09-12T19:46:39.711Z,12.986622073578594
2022-09-12T19:53:22.891Z,8.267558528428093
2022-09-12T20:05:00.432Z,9.665551839464882
2022-09-12T20:11:35.300Z,7.879598662207358
2022-09-12T20:18:08.695Z,8.153846153846153
2022-09-12T20:24:35.664Z,7.441471571906354
2022-09-12T20:31:04.482Z,6.879598662207358
2022-09-12T20:40:04.307Z,6.789297658862877
2022-09-12T20:46:34.480Z,7.1438127090301
2022-09-12T20:53:04.359Z,7.040133779264214
2022-09-12T20:59:33.343Z,6.745819397993311
2022-09-12T21:06:01.798Z,6.34113712374582
2022-09-12T21:12:29.982Z,6.424749163879599
2022-09-12T21:18:56.734Z,6.762541806020067
2022-09-12T21:25:24.072Z,7.107023411371237
2022-09-12T21:31:50.710Z,7.093645484949833
2022-09-12T21:38:17.307Z,6.822742474916388
2022-09-12T21:44:43.327Z,6.903010033444816
2022-09-12T21:51:10.613Z,6.311036789297659
2022-09-12T21:57:37.224Z,6.404682274247492
2022-09-12T22:08:53.543Z,6.214046822742475
2022-09-12T22:24:51.344Z,6.672240802675585
2022-09-12T22:31:19.716Z,7.605351170568562
2022-09-12T22:37:49.328Z,6.889632107023411
2022-09-12T22:44:16.678Z,6.170568561872909
2022-09-12T22:50:43.206Z,6.6755852842809364
2022-09-12T23:01:22.952Z,6.197324414715719
2022-09-12T23:07:49.435Z,6.331103678929765
2022-09-12T23:14:16.517Z,7.173913043478261
2022-09-12T23:20:43.294Z,6.344481605351171
2022-09-12T23:27:14.912Z,6.434782608695652
2022-09-12T23:33:41.103Z,6.210702341137123
2022-09-12T23:40:08.319Z,7.033444816053512
2022-09-12T23:47:07.148Z,7.287625418060201
2022-09-12T23:53:34.753Z,6.872909698996655
